Time;durP1;ratioP1;P1;durP2;ratioP2;P2;SDS_P1;SDS_P2;PMS_P1;PMS_P2;Temp;Humidity;BMP_temperature;BMP_pressure;BME280_temperature;BME280_humidity;BME280_pressure;Samples;Min_cycle;Max_cycle;Signal;HPM_P1;HPM_P2
2023/05/12 00:00:07;;;;;;;3.58;0.63;;;;;;;;;;1024045;29;20023;-75
2023/05/12 00:00:37;;;;;;;0.57;0.40;;;;;;;;;;1023537;29;20062;-75
2023/05/12 00:01:08;;;;;;;1.55;1.17;;;;;;;;;;1024328;28;20559;-75
2023/05/12 00:01:39;;;;;;;2.25;2.05;;;;;;;;;;1027921;28;20448;-75
2023/05/12 00:02:09;;;;;;;0.88;0.88;;;;;;;;;;1030014;28;20106;-75
2023/05/12 00:02:40;;;;;;;0.28;0.28;;;;;;;;;;1029690;28;20014;-75
2023/05/12 00:03:10;;;;;;;0.75;0.60;;;;;;;;;;1028570;28;20026;-75
2023/05/12 00:03:41;;;;;;;2.05;1.08;;;;;;;;;;1029873;28;20030;-75
2023/05/12 00:04:11;;;;;;;0.10;0.10;;;;;;;;;;1028915;28;20117;-75
2023/05/12 00:04:42;;;;;;;0.57;0.57;;;;;;;;;;1028713;28;20026;-75
2023/05/12 00:05:12;;;;;;;0.40;0.40;;;;;;;;;;1030212;28;20026;-75
2023/05/12 00:05:43;;;;;;;0.98;0.65;;;;;;;;;;1029166;28;20015;-75
2023/05/12 00:06:13;;;;;;;3.85;1.58;;;;;;;;;;1028313;28;20390;-75
2023/05/12 00:06:44;;;;;;;4.18;1.38;;;;;;;;;;1028161;28;20022;-75
2023/05/12 00:07:14;;;;;;;0.68;0.63;;;;;;;;;;1024596;28;20034;-75
2023/05/12 00:07:45;;;;;;;1.17;0.45;;;;;;;;;;1024762;28;20089;-75
2023/05/12 00:08:15;;;;;;;1.27;0.80;;;;;;;;;;1029610;28;20113;-75
2023/05/12 00:08:46;;;;;;;2.83;1.45;;;;;;;;;;1026889;28;20058;-75
2023/05/12 00:09:16;;;;;;;5.40;2.28;;;;;;;;;;1026047;28;20027;-75
2023/05/12 00:09:47;;;;;;;1.95;1.38;;;;;;;;;;1027987;28;20054;-75
2023/05/12 00:10:17;;;;;;;1.50;1.40;;;;;;;;;;1028301;28;20014;-75
2023/05/12 00:10:48;;;;;;;0.73;0.73;;;;;;;;;;1028190;28;20094;-75
2023/05/12 00:11:19;;;;;;;1.35;1.25;;;;;;;;;;1028532;28;20026;-75
2023/05/12 00:11:50;;;;;;;8.40;1.58;;;;;;;;;;1029099;28;20104;-75
2023/05/12 00:12:20;;;;;;;0.70;0.70;;;;;;;;;;1029489;28;20023;-75
2023/05/12 00:12:51;;;;;;;0.43;0.43;;;;;;;;;;1028895;28;20026;-75
2023/05/12 00:13:22;;;;;;;0.20;0.20;;;;;;;;;;1029702;28;20042;-75
2023/05/12 00:13:53;;;;;;;1.13;1.08;;;;;;;;;;1027738;28;20026;-75
2023/05/12 00:14:24;;;;;;;9.18;1.08;;;;;;;;;;1028859;28;20618;-75
2023/05/12 00:14:55;;;;;;;0.52;0.52;;;;;;;;;;1027977;28;20058;-75
2023/05/12 00:15:25;;;;;;;4.55;1.02;;;;;;;;;;1027512;28;20023;-75
2023/05/12 00:15:57;;;;;;;1.85;1.42;;;;;;;;;;1022696;29;20027;-75
2023/05/12 00:16:28;;;;;;;0.30;0.25;;;;;;;;;;1027874;28;20030;-75
2023/05/12 00:16:58;;;;;;;0.30;0.20;;;;;;;;;;1028493;28;20081;-75
2023/05/12 00:17:29;;;;;;;0.22;0.22;;;;;;;;;;1029791;28;20392;-75
2023/05/12 00:17:59;;;;;;;0.13;0.13;;;;;;;;;;1028677;28;20014;-75
2023/05/12 00:18:30;;;;;;;0.55;0.55;;;;;;;;;;1028422;28;20042;-75
2023/05/12 00:19:00;;;;;;;0.85;0.85;;;;;;;;;;1029718;28;20387;-75
2023/05/12 00:19:32;;;;;;;0.57;0.57;;;;;;;;;;1030086;28;20026;-75
2023/05/12 00:20:03;;;;;;;0.55;0.22;;;;;;;;;;1029061;28;20033;-75
2023/05/12 00:20:33;;;;;;;0.20;0.20;;;;;;;;;;1028965;28;20042;-75
2023/05/12 00:21:04;;;;;;;0.30;0.30;;;;;;;;;;1026622;28;20031;-75
2023/05/12 00:21:35;;;;;;;4.03;1.27;;;;;;;;;;1026625;28;20146;-75
2023/05/12 00:22:05;;;;;;;0.20;0.20;;;;;;;;;;1025078;28;20022;-75
2023/05/12 00:22:36;;;;;;;1.35;1.15;;;;;;;;;;1028729;28;20023;-75
2023/05/12 00:23:06;;;;;;;0.22;0.20;;;;;;;;;;1024831;29;20106;-75
2023/05/12 00:23:37;;;;;;;0.55;0.52;;;;;;;;;;1020413;29;20419;-75
2023/05/12 00:24:08;;;;;;;0.10;0.10;;;;;;;;;;1016299;29;20020;-75
2023/05/12 00:24:41;;;;;;;1.40;1.35;;;;;;;;;;1018455;29;20091;-75
2023/05/12 00:25:12;;;;;;;4.53;1.13;;;;;;;;;;1018618;29;20028;-75
2023/05/12 00:25:42;;;;;;;1.38;1.27;;;;;;;;;;1020020;29;20033;-75
2023/05/12 00:26:13;;;;;;;3.83;2.15;;;;;;;;;;1020008;29;20411;-75
2023/05/12 00:26:43;;;;;;;9.05;1.17;;;;;;;;;;1022334;29;20028;-75
2023/05/12 00:27:14;;;;;;;1.10;0.60;;;;;;;;;;1024951;28;20027;-75
2023/05/12 00:27:44;;;;;;;3.65;0.95;;;;;;;;;;1023987;28;20019;-75
2023/05/12 00:28:17;;;;;;;0.63;0.52;;;;;;;;;;1027262;28;20015;-75
2023/05/12 00:28:47;;;;;;;0.20;0.20;;;;;;;;;;1026156;28;20019;-75
2023/05/12 00:29:18;;;;;;;1.48;1.20;;;;;;;;;;1028329;28;20482;-75
2023/05/12 00:29:48;;;;;;;0.40;0.40;;;;;;;;;;1026657;28;20027;-75
2023/05/12 00:30:19;;;;;;;0.00;0.00;;;;;;;;;;1022954;29;20024;-76
2023/05/12 00:30:50;;;;;;;0.43;0.43;;;;;;;;;;1022816;29;20034;-76
2023/05/12 00:31:20;;;;;;;4.40;0.50;;;;;;;;;;1022492;29;20047;-76
2023/05/12 00:31:51;;;;;;;1.75;0.93;;;;;;;;;;1027418;28;20022;-76
2023/05/12 00:32:21;;;;;;;1.00;0.88;;;;;;;;;;1028908;28;20026;-76
2023/05/12 00:32:52;;;;;;;0.32;0.30;;;;;;;;;;1028531;28;20097;-76
2023/05/12 00:33:22;;;;;;;3.20;1.17;;;;;;;;;;1024880;28;20455;-76
2023/05/12 00:33:53;;;;;;;2.83;1.65;;;;;;;;;;1028705;28;20110;-76
2023/05/12 00:34:23;;;;;;;1.02;0.90;;;;;;;;;;1028250;28;20023;-76
2023/05/12 00:34:54;;;;;;;0.57;0.57;;;;;;;;;;1026794;28;20026;-75
2023/05/12 00:35:24;;;;;;;1.75;1.48;;;;;;;;;;1026035;28;20099;-75
2023/05/12 00:35:55;;;;;;;0.43;0.38;;;;;;;;;;1028946;28;20027;-75
2023/05/12 00:36:25;;;;;;;0.65;0.60;;;;;;;;;;1026675;28;20022;-75
2023/05/12 00:36:56;;;;;;;2.20;2.05;;;;;;;;;;1028458;28;20038;-75
2023/05/12 00:37:27;;;;;;;0.32;0.32;;;;;;;;;;1029381;28;20022;-75
2023/05/12 00:37:57;;;;;;;2.35;0.75;;;;;;;;;;1024124;28;20062;-75
2023/05/12 00:38:28;;;;;;;2.42;1.20;;;;;;;;;;1023479;28;20024;-75
2023/05/12 00:38:58;;;;;;;0.50;0.50;;;;;;;;;;1022122;29;20023;-75
2023/05/12 00:39:29;;;;;;;0.85;0.63;;;;;;;;;;1018342;29;20024;-75
2023/05/12 00:39:59;;;;;;;3.63;1.13;;;;;;;;;;1021566;29;20080;-75
2023/05/12 00:40:30;;;;;;;0.10;0.10;;;;;;;;;;1024785;28;20023;-75
2023/05/12 00:41:00;;;;;;;0.08;0.08;;;;;;;;;;1024384;28;20027;-75
2023/05/12 00:41:31;;;;;;;2.08;1.15;;;;;;;;;;1027487;28;20026;-75
2023/05/12 00:42:02;;;;;;;0.57;0.55;;;;;;;;;;1024241;29;20030;-75
2023/05/12 00:42:33;;;;;;;0.52;0.43;;;;;;;;;;1022920;29;20435;-75
2023/05/12 00:43:04;;;;;;;2.63;1.02;;;;;;;;;;1024084;28;20018;-75
2023/05/12 00:43:34;;;;;;;5.18;1.98;;;;;;;;;;1029233;28;20022;-75
2023/05/12 00:44:05;;;;;;;0.38;0.38;;;;;;;;;;1029388;28;20031;-75
2023/05/12 00:44:35;;;;;;;0.55;0.55;;;;;;;;;;1028324;28;20023;-75
2023/05/12 00:45:06;;;;;;;2.10;0.50;;;;;;;;;;1028805;28;20038;-75
2023/05/12 00:45:37;;;;;;;1.20;0.57;;;;;;;;;;1028007;28;20033;-75
2023/05/12 00:46:07;;;;;;;0.30;0.30;;;;;;;;;;1029959;28;20018;-75
2023/05/12 00:46:38;;;;;;;0.60;0.45;;;;;;;;;;1028632;28;20048;-75
2023/05/12 00:47:08;;;;;;;19.27;1.05;;;;;;;;;;1028186;28;20513;-75
2023/05/12 00:47:39;;;;;;;2.88;0.63;;;;;;;;;;1027353;28;20018;-75
2023/05/12 00:48:09;;;;;;;0.45;0.40;;;;;;;;;;1025963;28;20042;-75
2023/05/12 00:48:40;;;;;;;8.27;0.82;;;;;;;;;;1028533;28;20026;-75
2023/05/12 00:49:11;;;;;;;0.68;0.68;;;;;;;;;;1027573;28;20026;-76
2023/05/12 00:49:41;;;;;;;0.73;0.52;;;;;;;;;;1027962;28;20684;-75
2023/05/12 00:50:12;;;;;;;3.42;2.35;;;;;;;;;;1024186;29;20082;-75
2023/05/12 00:50:42;;;;;;;2.42;1.77;;;;;;;;;;1021821;29;20123;-75
2023/05/12 00:51:14;;;;;;;1.35;0.43;;;;;;;;;;1023212;29;20030;-75
2023/05/12 00:51:45;;;;;;;2.80;0.45;;;;;;;;;;1025974;28;20090;-75
2023/05/12 00:52:15;;;;;;;4.03;1.55;;;;;;;;;;1031385;28;20023;-75
2023/05/12 00:52:47;;;;;;;1.38;1.27;;;;;;;;;;1030041;28;20022;-75
2023/05/12 00:53:17;;;;;;;1.60;1.25;;;;;;;;;;1028350;28;20537;-75
2023/05/12 00:53:48;;;;;;;3.20;0.38;;;;;;;;;;1027658;28;20031;-75
2023/05/12 00:54:19;;;;;;;0.10;0.10;;;;;;;;;;1027089;28;20529;-75
2023/05/12 00:54:49;;;;;;;4.03;1.75;;;;;;;;;;1026345;28;20027;-75
2023/05/12 00:55:20;;;;;;;0.75;0.75;;;;;;;;;;1026341;28;20019;-75
2023/05/12 00:55:52;;;;;;;0.43;0.43;;;;;;;;;;1025896;28;20096;-75
2023/05/12 00:56:22;;;;;;;0.10;0.10;;;;;;;;;;1023624;29;20026;-75
2023/05/12 00:56:53;;;;;;;0.90;0.90;;;;;;;;;;1026381;28;20027;-75
2023/05/12 00:57:24;;;;;;;2.80;2.35;;;;;;;;;;1023709;28;20094;-75
2023/05/12 00:57:55;;;;;;;2.78;0.85;;;;;;;;;;1027938;28;20085;-75
2023/05/12 00:58:25;;;;;;;1.45;0.50;;;;;;;;;;1031238;28;20450;-75
2023/05/12 00:58:56;;;;;;;1.55;1.10;;;;;;;;;;1029020;28;20102;-75
2023/05/12 00:59:28;;;;;;;0.00;0.00;;;;;;;;;;1028738;28;20062;-75
2023/05/12 00:59:58;;;;;;;1.38;1.13;;;;;;;;;;1029055;28;20538;-75
2023/05/12 01:00:29;;;;;;;0.20;0.20;;;;;;;;;;1028132;28;20085;-75
2023/05/12 01:00:59;;;;;;;0.40;0.40;;;;;;;;;;1027700;28;20418;-75
2023/05/12 01:01:31;;;;;;;8.75;1.58;;;;;;;;;;1029679;28;20165;-75
2023/05/12 01:02:01;;;;;;;6.13;2.38;;;;;;;;;;1028248;28;20548;-75
2023/05/12 01:02:32;;;;;;;0.85;0.80;;;;;;;;;;1028511;28;20073;-75
2023/05/12 01:03:02;;;;;;;0.20;0.20;;;;;;;;;;1024920;28;20067;-75
2023/05/12 01:03:33;;;;;;;2.20;1.13;;;;;;;;;;1024628;29;20031;-75
2023/05/12 01:04:04;;;;;;;0.80;0.80;;;;;;;;;;1026208;28;20071;-75
2023/05/12 01:04:34;;;;;;;3.00;0.52;;;;;;;;;;1029536;28;20514;-75
2023/05/12 01:05:05;;;;;;;4.15;1.88;;;;;;;;;;1029168;28;20022;-75
2023/05/12 01:05:41;;;;;;;1.15;1.05;;;;;;;;;;1029158;28;20046;-75
2023/05/12 01:06:15;;;;;;;3.22;0.45;;;;;;;;;;1029581;28;20499;-75
2023/05/12 01:07:06;;;;;;;0.30;0.30;;;;;;;;;;1027527;28;20423;-75
2023/05/12 01:07:37;;;;;;;0.20;0.20;;;;;;;;;;1028660;28;20044;-75
2023/05/12 01:08:09;;;;;;;2.72;0.57;;;;;;;;;;1027175;28;20074;-75
2023/05/12 01:08:41;;;;;;;0.10;0.10;;;;;;;;;;1024462;28;20020;-75
2023/05/12 01:09:11;;;;;;;1.08;1.08;;;;;;;;;;1021541;29;20038;-75
2023/05/12 01:09:42;;;;;;;13.43;0.90;;;;;;;;;;1020348;29;20064;-75
2023/05/12 01:10:19;;;;;;;1.08;0.32;;;;;;;;;;1019774;29;20103;-75
2023/05/12 01:10:51;;;;;;;1.85;1.02;;;;;;;;;;1023687;28;20071;-75
2023/05/12 01:11:22;;;;;;;0.73;0.70;;;;;;;;;;1023459;29;20015;-75
2023/05/12 01:11:52;;;;;;;0.10;0.10;;;;;;;;;;1025692;28;20030;-75
2023/05/12 01:12:24;;;;;;;0.43;0.43;;;;;;;;;;1029660;28;20026;-75
2023/05/12 01:12:54;;;;;;;2.72;0.82;;;;;;;;;;1028545;28;20470;-75
2023/05/12 01:13:27;;;;;;;0.55;0.55;;;;;;;;;;1031253;28;20030;-75
2023/05/12 01:13:58;;;;;;;0.20;0.20;;;;;;;;;;1027560;28;20015;-75
2023/05/12 01:14:28;;;;;;;0.50;0.50;;;;;;;;;;1026612;28;20027;-75
2023/05/12 01:14:59;;;;;;;0.50;0.50;;;;;;;;;;1028861;28;20023;-75
2023/05/12 01:15:31;;;;;;;0.75;0.75;;;;;;;;;;1027942;28;20023;-77
2023/05/12 01:16:01;;;;;;;1.00;0.77;;;;;;;;;;1027763;28;20573;-76
2023/05/12 01:16:35;;;;;;;7.82;0.98;;;;;;;;;;1025042;28;20063;-76
2023/05/12 01:17:09;;;;;;;0.70;0.70;;;;;;;;;;1025044;29;20038;-76
2023/05/12 01:17:41;;;;;;;0.22;0.22;;;;;;;;;;1024956;28;20479;-76
2023/05/12 01:18:12;;;;;;;0.10;0.10;;;;;;;;;;1028336;28;20094;-76
2023/05/12 01:18:48;;;;;;;1.55;0.30;;;;;;;;;;1027880;28;20041;-76
2023/05/12 01:19:31;;;;;;;3.03;0.88;;;;;;;;;;1028230;28;20030;-76
2023/05/12 01:20:03;;;;;;;0.60;0.43;;;;;;;;;;1028443;28;20014;-76
2023/05/12 01:20:34;;;;;;;0.08;0.08;;;;;;;;;;1029389;28;20066;-76
2023/05/12 01:21:05;;;;;;;0.05;0.05;;;;;;;;;;1027195;28;20014;-76
2023/05/12 01:21:35;;;;;;;0.20;0.17;;;;;;;;;;1026878;28;20388;-76
2023/05/12 01:22:06;;;;;;;0.30;0.30;;;;;;;;;;1028306;28;20030;-76
2023/05/12 01:22:38;;;;;;;1.08;1.05;;;;;;;;;;1027055;28;20099;-76
2023/05/12 01:23:09;;;;;;;0.35;0.35;;;;;;;;;;1026964;28;20027;-76
2023/05/12 01:23:43;;;;;;;0.25;0.25;;;;;;;;;;1028533;28;20048;-76
2023/05/12 01:24:15;;;;;;;0.00;0.00;;;;;;;;;;1028583;28;20031;-76
2023/05/12 01:24:46;;;;;;;1.35;0.20;;;;;;;;;;1028203;28;20116;-75
2023/05/12 01:25:18;;;;;;;8.50;1.55;;;;;;;;;;1031107;28;20498;-75
2023/05/12 01:25:49;;;;;;;1.65;0.65;;;;;;;;;;1025953;28;20409;-75
2023/05/12 01:26:21;;;;;;;2.28;1.25;;;;;;;;;;1026572;28;20026;-75
2023/05/12 01:26:51;;;;;;;1.17;1.05;;;;;;;;;;1029731;28;20031;-75
2023/05/12 01:27:24;;;;;;;2.88;0.35;;;;;;;;;;1029169;28;20027;-75
2023/05/12 01:27:54;;;;;;;0.28;0.28;;;;;;;;;;1026357;28;20023;-75
2023/05/12 01:28:26;;;;;;;0.52;0.20;;;;;;;;;;1029428;28;20035;-75
2023/05/12 01:28:56;;;;;;;0.80;0.80;;;;;;;;;;1023906;29;20023;-75
2023/05/12 01:29:27;;;;;;;0.55;0.55;;;;;;;;;;1024231;28;20027;-75
2023/05/12 01:29:59;;;;;;;1.00;0.40;;;;;;;;;;1025641;28;20086;-75
2023/05/12 01:30:30;;;;;;;0.20;0.20;;;;;;;;;;1024868;28;20506;-75
2023/05/12 01:31:02;;;;;;;0.20;0.20;;;;;;;;;;1023352;29;20046;-75
2023/05/12 01:31:33;;;;;;;0.13;0.13;;;;;;;;;;1024202;29;20047;-75
2023/05/12 01:32:04;;;;;;;1.02;0.90;;;;;;;;;;1024734;28;20035;-75
2023/05/12 01:32:35;;;;;;;0.45;0.45;;;;;;;;;;1027273;28;20023;-75
2023/05/12 01:33:07;;;;;;;1.00;0.73;;;;;;;;;;1024015;28;20019;-75
2023/05/12 01:33:38;;;;;;;0.60;0.60;;;;;;;;;;1026419;28;20074;-75
2023/05/12 01:34:13;;;;;;;0.57;0.57;;;;;;;;;;1021257;28;20037;-75
2023/05/12 01:34:43;;;;;;;0.55;0.52;;;;;;;;;;1025027;28;20144;-75
2023/05/12 01:35:14;;;;;;;0.38;0.38;;;;;;;;;;1023709;28;20045;-75
2023/05/12 01:35:44;;;;;;;0.38;0.35;;;;;;;;;;1024276;28;20023;-75
2023/05/12 01:36:15;;;;;;;0.90;0.90;;;;;;;;;;1022124;29;20015;-75
2023/05/12 01:36:46;;;;;;;0.52;0.15;;;;;;;;;;1019025;29;20043;-75
2023/05/12 01:37:16;;;;;;;0.85;0.60;;;;;;;;;;1023140;29;20020;-75
2023/05/12 01:37:47;;;;;;;4.45;2.40;;;;;;;;;;1026759;28;20031;-75
2023/05/12 01:38:18;;;;;;;0.75;0.75;;;;;;;;;;1029607;28;20042;-75
2023/05/12 01:38:48;;;;;;;0.00;0.00;;;;;;;;;;1028389;28;20015;-75
2023/05/12 01:39:19;;;;;;;0.20;0.20;;;;;;;;;;1027505;28;20035;-75
2023/05/12 01:39:49;;;;;;;0.10;0.10;;;;;;;;;;1026390;28;20403;-75
2023/05/12 01:40:21;;;;;;;0.40;0.40;;;;;;;;;;1023611;29;20039;-76
2023/05/12 01:40:52;;;;;;;0.10;0.10;;;;;;;;;;1025889;29;20023;-75
2023/05/12 01:41:23;;;;;;;1.92;1.30;;;;;;;;;;1022304;28;20769;-75
2023/05/12 01:41:54;;;;;;;0.00;0.00;;;;;;;;;;1024414;28;20027;-76
2023/05/12 01:42:25;;;;;;;1.50;1.27;;;;;;;;;;1023105;28;20034;-76
2023/05/12 01:42:55;;;;;;;1.80;0.63;;;;;;;;;;1023931;28;20034;-76
2023/05/12 01:43:26;;;;;;;2.58;1.42;;;;;;;;;;1028145;28;20027;-76
2023/05/12 01:43:56;;;;;;;0.00;0.00;;;;;;;;;;1027306;28;20499;-75
2023/05/12 01:44:27;;;;;;;0.20;0.20;;;;;;;;;;1027055;28;20037;-75
2023/05/12 01:44:57;;;;;;;2.55;0.50;;;;;;;;;;1029232;28;20030;-75
2023/05/12 01:45:28;;;;;;;0.25;0.25;;;;;;;;;;1027998;28;20564;-75
2023/05/12 01:45:58;;;;;;;0.08;0.08;;;;;;;;;;1027491;28;20097;-76
2023/05/12 01:46:29;;;;;;;0.93;0.82;;;;;;;;;;1026143;28;20065;-76
2023/05/12 01:47:03;;;;;;;0.80;0.75;;;;;;;;;;1029190;28;20030;-76
2023/05/12 01:47:33;;;;;;;0.20;0.20;;;;;;;;;;1025704;28;20506;-76
2023/05/12 01:48:04;;;;;;;0.85;0.85;;;;;;;;;;1023111;28;20118;-76
2023/05/12 01:48:35;;;;;;;0.30;0.30;;;;;;;;;;1030100;28;20031;-76
2023/05/12 01:49:05;;;;;;;0.90;0.90;;;;;;;;;;1025082;29;20027;-75
2023/05/12 01:49:36;;;;;;;0.93;0.90;;;;;;;;;;1018723;29;20038;-75
2023/05/12 01:50:07;;;;;;;2.08;1.17;;;;;;;;;;1023268;28;20038;-75
2023/05/12 01:50:37;;;;;;;0.15;0.15;;;;;;;;;;1027724;28;20031;-75
2023/05/12 01:51:08;;;;;;;0.88;0.40;;;;;;;;;;1028647;28;20026;-75
2023/05/12 01:51:38;;;;;;;0.10;0.10;;;;;;;;;;1027242;28;20030;-75
2023/05/12 01:52:08;;;;;;;0.60;0.28;;;;;;;;;;1028883;28;20041;-75
2023/05/12 01:52:39;;;;;;;0.75;0.75;;;;;;;;;;1029384;28;20376;-75
2023/05/12 01:53:09;;;;;;;0.10;0.10;;;;;;;;;;1028421;28;20031;-75
2023/05/12 01:53:41;;;;;;;0.20;0.20;;;;;;;;;;1028349;28;20061;-75
2023/05/12 01:54:11;;;;;;;0.20;0.20;;;;;;;;;;1027650;28;20030;-75
2023/05/12 01:54:41;;;;;;;1.23;0.50;;;;;;;;;;1026022;28;20027;-75
2023/05/12 01:55:12;;;;;;;0.10;0.10;;;;;;;;;;1027916;28;20030;-75
2023/05/12 01:55:43;;;;;;;0.20;0.20;;;;;;;;;;1023746;29;20058;-75
2023/05/12 01:56:14;;;;;;;0.10;0.10;;;;;;;;;;1024766;28;20031;-75
2023/05/12 01:56:44;;;;;;;0.75;0.75;;;;;;;;;;1024251;29;20417;-75
2023/05/12 01:57:16;;;;;;;0.77;0.77;;;;;;;;;;1023693;28;20424;-75
2023/05/12 01:57:47;;;;;;;2.08;0.65;;;;;;;;;;1022191;28;20031;-76
2023/05/12 01:58:19;;;;;;;0.65;0.65;;;;;;;;;;1024631;28;20050;-76
2023/05/12 01:58:50;;;;;;;0.10;0.10;;;;;;;;;;1024203;28;20043;-76
2023/05/12 01:59:20;;;;;;;0.20;0.10;;;;;;;;;;1022791;28;20796;-76
2023/05/12 01:59:51;;;;;;;0.35;0.35;;;;;;;;;;1028607;28;20536;-76
2023/05/12 02:00:22;;;;;;;5.13;2.20;;;;;;;;;;1023685;28;20030;-75
2023/05/12 02:00:52;;;;;;;0.45;0.45;;;;;;;;;;1023091;29;20165;-75
2023/05/12 02:01:27;;;;;;;0.22;0.22;;;;;;;;;;1024997;28;20467;-75
2023/05/12 02:01:58;;;;;;;0.40;0.32;;;;;;;;;;1025814;28;20019;-76
2023/05/12 02:02:30;;;;;;;8.98;2.20;;;;;;;;;;1026311;28;20062;-75
2023/05/12 02:03:01;;;;;;;0.50;0.50;;;;;;;;;;1028125;28;20037;-76
2023/05/12 02:03:31;;;;;;;0.85;0.52;;;;;;;;;;1025292;28;20046;-76
2023/05/12 02:04:03;;;;;;;0.67;0.50;;;;;;;;;;1022057;29;20023;-76
2023/05/12 02:04:34;;;;;;;0.10;0.10;;;;;;;;;;1023083;29;20067;-76
2023/05/12 02:05:34;;;;;;;3.38;1.23;;;;;;;;;;1023862;28;20463;-76
2023/05/12 02:06:05;;;;;;;;;;;;;;;;;;1023672;28;20060;-76
2023/05/12 02:06:35;;;;;;;3.22;0.95;;;;;;;;;;1026764;28;19936;-76
2023/05/12 02:07:06;;;;;;;10.75;1.88;;;;;;;;;;1022155;28;20118;-76
2023/05/12 02:07:55;;;;;;;1.58;1.20;;;;;;;;;;1022483;28;20039;-76
2023/05/12 02:08:26;;;;;;;0.90;0.75;;;;;;;;;;1025345;28;20035;-76
2023/05/12 02:08:57;;;;;;;0.45;0.45;;;;;;;;;;1027500;28;20027;-76
2023/05/12 02:09:28;;;;;;;0.85;0.85;;;;;;;;;;1026165;28;20057;-76
2023/05/12 02:09:58;;;;;;;1.30;1.20;;;;;;;;;;1029844;28;20114;-76
2023/05/12 02:10:29;;;;;;;0.20;0.20;;;;;;;;;;1031374;28;20073;-77
2023/05/12 02:11:03;;;;;;;0.93;0.82;;;;;;;;;;1030125;28;20031;-76
2023/05/12 02:11:34;;;;;;;0.43;0.43;;;;;;;;;;1026488;28;20115;-76
2023/05/12 02:12:05;;;;;;;11.30;2.70;;;;;;;;;;1025848;28;20039;-76
2023/05/12 02:12:36;;;;;;;1.45;1.25;;;;;;;;;;1026211;28;20396;-76
2023/05/12 02:13:07;;;;;;;0.73;0.73;;;;;;;;;;1029285;28;20103;-76
2023/05/12 02:13:37;;;;;;;0.20;0.20;;;;;;;;;;1026604;28;20054;-75
2023/05/12 02:14:08;;;;;;;0.85;0.63;;;;;;;;;;1024116;29;20349;-75
2023/05/12 02:14:39;;;;;;;0.57;0.30;;;;;;;;;;1023502;28;20489;-76
2023/05/12 02:15:09;;;;;;;1.85;0.47;;;;;;;;;;1024779;28;20110;-76
2023/05/12 02:15:40;;;;;;;0.70;0.70;;;;;;;;;;1025120;28;20039;-76
2023/05/12 02:16:11;;;;;;;0.40;0.40;;;;;;;;;;1026538;28;20026;-76
2023/05/12 02:16:42;;;;;;;1.10;0.75;;;;;;;;;;1027067;28;20109;-76
2023/05/12 02:17:12;;;;;;;0.52;0.52;;;;;;;;;;1028091;28;20118;-75
2023/05/12 02:17:43;;;;;;;0.25;0.25;;;;;;;;;;1027667;28;20482;-75
2023/05/12 02:18:13;;;;;;;0.40;0.28;;;;;;;;;;1026950;28;20442;-75
2023/05/12 02:18:44;;;;;;;18.52;1.42;;;;;;;;;;1027675;28;20122;-76
2023/05/12 02:19:14;;;;;;;0.65;0.65;;;;;;;;;;1022427;28;20051;-76
2023/05/12 02:19:45;;;;;;;6.82;0.73;;;;;;;;;;1022957;29;20035;-75
2023/05/12 02:20:15;;;;;;;0.57;0.57;;;;;;;;;;1023890;28;20058;-76
2023/05/12 02:20:46;;;;;;;1.88;1.08;;;;;;;;;;1024321;28;20027;-76
2023/05/12 02:21:17;;;;;;;0.45;0.30;;;;;;;;;;1025617;28;20453;-76
2023/05/12 02:21:47;;;;;;;0.45;0.20;;;;;;;;;;1022716;28;20351;-76
2023/05/12 02:22:18;;;;;;;1.40;1.35;;;;;;;;;;1022722;28;20582;-76
2023/05/12 02:22:48;;;;;;;1.77;1.45;;;;;;;;;;1019203;29;20032;-76
2023/05/12 02:23:19;;;;;;;0.55;0.55;;;;;;;;;;1017829;29;20027;-75
2023/05/12 02:23:50;;;;;;;14.50;1.25;;;;;;;;;;1024274;29;20027;-76
2023/05/12 02:24:20;;;;;;;11.88;0.98;;;;;;;;;;1022539;29;20593;-76
2023/05/12 02:24:51;;;;;;;0.75;0.52;;;;;;;;;;1025415;28;20141;-76
2023/05/12 02:25:21;;;;;;;3.35;1.65;;;;;;;;;;1026066;28;20039;-76
2023/05/12 02:25:52;;;;;;;1.13;0.80;;;;;;;;;;1021616;28;21734;-76
2023/05/12 02:26:22;;;;;;;0.98;0.52;;;;;;;;;;1026832;28;20094;-75
2023/05/12 02:26:53;;;;;;;0.77;0.77;;;;;;;;;;1025451;28;20034;-75
2023/05/12 02:27:24;;;;;;;1.52;0.52;;;;;;;;;;1026419;28;20085;-75
2023/05/12 02:27:54;;;;;;;0.28;0.28;;;;;;;;;;1027649;28;20031;-76
2023/05/12 02:28:25;;;;;;;1.75;1.25;;;;;;;;;;1026057;28;20037;-75
2023/05/12 02:28:55;;;;;;;1.40;0.80;;;;;;;;;;1027788;28;20030;-76
2023/05/12 02:29:26;;;;;;;2.47;0.88;;;;;;;;;;1027407;28;20604;-76
2023/05/12 02:29:57;;;;;;;1.08;0.40;;;;;;;;;;1027067;28;20027;-76
2023/05/12 02:30:27;;;;;;;1.70;1.00;;;;;;;;;;1027509;28;20527;-76
2023/05/12 02:30:58;;;;;;;2.40;1.23;;;;;;;;;;1026104;28;20031;-75
2023/05/12 02:31:29;;;;;;;1.15;1.05;;;;;;;;;;1027409;28;20023;-75
2023/05/12 02:32:01;;;;;;;2.75;1.38;;;;;;;;;;1027808;28;20023;-75
2023/05/12 02:32:32;;;;;;;0.40;0.40;;;;;;;;;;1026754;28;20027;-77
2023/05/12 02:33:04;;;;;;;0.22;0.22;;;;;;;;;;1026805;28;20034;-76
2023/05/12 02:33:35;;;;;;;0.38;0.38;;;;;;;;;;1026025;28;20035;-76
2023/05/12 02:34:06;;;;;;;0.43;0.35;;;;;;;;;;1029102;28;20023;-76
2023/05/12 02:34:37;;;;;;;1.42;1.33;;;;;;;;;;1024677;28;20027;-76
2023/05/12 02:35:09;;;;;;;0.22;0.22;;;;;;;;;;1021536;28;20027;-76
2023/05/12 02:35:40;;;;;;;3.15;2.00;;;;;;;;;;1021053;29;20042;-77
2023/05/12 02:36:10;;;;;;;1.50;1.40;;;;;;;;;;1020130;29;20040;-75
2023/05/12 02:36:42;;;;;;;2.78;1.08;;;;;;;;;;1017987;29;20476;-75
2023/05/12 02:37:15;;;;;;;0.80;0.38;;;;;;;;;;1017261;28;20577;-75
2023/05/12 02:37:46;;;;;;;1.58;0.63;;;;;;;;;;1018925;28;20035;-75
2023/05/12 02:38:19;;;;;;;0.32;0.28;;;;;;;;;;1022558;29;20450;-76
2023/05/12 02:38:52;;;;;;;4.07;1.48;;;;;;;;;;1024255;29;20031;-75
2023/05/12 02:39:24;;;;;;;6.78;4.07;;;;;;;;;;1024450;29;20047;-74
2023/05/12 02:39:57;;;;;;;5.35;0.88;;;;;;;;;;1019331;29;20094;-75
2023/05/12 02:40:28;;;;;;;1.48;0.98;;;;;;;;;;1017598;29;20039;-76
2023/05/12 02:40:59;;;;;;;0.10;0.10;;;;;;;;;;1018599;29;20043;-75
2023/05/12 02:41:35;;;;;;;0.52;0.43;;;;;;;;;;1022749;28;20496;-75
2023/05/12 02:42:06;;;;;;;0.70;0.70;;;;;;;;;;1024867;28;20030;-75
2023/05/12 02:42:38;;;;;;;0.00;0.00;;;;;;;;;;1022155;29;20031;-75
2023/05/12 02:43:14;;;;;;;2.25;1.55;;;;;;;;;;1022822;29;20058;-76
2023/05/12 02:43:45;;;;;;;0.60;0.60;;;;;;;;;;1021074;29;20122;-75
2023/05/12 02:44:17;;;;;;;2.13;1.70;;;;;;;;;;1023861;29;20074;-75
2023/05/12 02:44:48;;;;;;;3.88;1.13;;;;;;;;;;1023427;29;20416;-75
2023/05/12 02:45:18;;;;;;;1.17;1.08;;;;;;;;;;1019365;29;20111;-76
2023/05/12 02:45:50;;;;;;;1.80;0.63;;;;;;;;;;1017129;29;20035;-76
2023/05/12 02:46:21;;;;;;;2.38;1.85;;;;;;;;;;1010476;29;20033;-76
2023/05/12 02:46:51;;;;;;;0.10;0.10;;;;;;;;;;1015483;29;20032;-76
2023/05/12 02:47:23;;;;;;;0.15;0.15;;;;;;;;;;1019999;28;20070;-76
2023/05/12 02:47:55;;;;;;;0.57;0.57;;;;;;;;;;1019653;28;20087;-75
2023/05/12 02:48:26;;;;;;;0.25;0.25;;;;;;;;;;1021064;29;20154;-75
2023/05/12 02:48:56;;;;;;;1.15;0.40;;;;;;;;;;1021182;29;20123;-75
2023/05/12 02:49:27;;;;;;;1.73;1.17;;;;;;;;;;1017547;29;20141;-76
2023/05/12 02:49:58;;;;;;;1.55;1.23;;;;;;;;;;1016274;29;20031;-75
2023/05/12 02:50:29;;;;;;;0.17;0.08;;;;;;;;;;1022437;28;20418;-76
2023/05/12 02:51:00;;;;;;;3.13;1.58;;;;;;;;;;1026858;28;20510;-75
2023/05/12 02:51:30;;;;;;;0.35;0.35;;;;;;;;;;1022728;28;21078;-75
2023/05/12 02:52:01;;;;;;;0.75;0.68;;;;;;;;;;1017987;29;20641;-75
2023/05/12 02:52:32;;;;;;;0.63;0.63;;;;;;;;;;1023353;28;20138;-75
2023/05/12 02:53:03;;;;;;;2.00;1.83;;;;;;;;;;1022296;28;20119;-76
2023/05/12 02:53:34;;;;;;;0.70;0.70;;;;;;;;;;1018849;29;20028;-76
2023/05/12 02:54:05;;;;;;;0.32;0.32;;;;;;;;;;1019045;29;20027;-75
2023/05/12 02:54:35;;;;;;;6.40;3.63;;;;;;;;;;1021284;28;20028;-75
2023/05/12 02:55:08;;;;;;;1.05;0.95;;;;;;;;;;1023416;28;20030;-75
2023/05/12 02:55:39;;;;;;;1.45;1.35;;;;;;;;;;1018999;28;20575;-75
2023/05/12 02:56:12;;;;;;;1.38;1.13;;;;;;;;;;1019993;28;20026;-77
2023/05/12 02:56:43;;;;;;;2.10;1.92;;;;;;;;;;1013880;29;20117;-76
2023/05/12 02:57:13;;;;;;;3.83;3.42;;;;;;;;;;1014245;28;21399;-77
2023/05/12 02:57:44;;;;;;;4.10;1.35;;;;;;;;;;1023803;28;20061;-77
2023/05/12 02:58:15;;;;;;;1.77;1.42;;;;;;;;;;1022055;28;20768;-77
2023/05/12 02:58:50;;;;;;;1.35;0.85;;;;;;;;;;1024158;29;20035;-76
2023/05/12 02:59:20;;;;;;;0.20;0.20;;;;;;;;;;1020306;29;20037;-77
2023/05/12 02:59:51;;;;;;;0.20;0.20;;;;;;;;;;1021276;28;20038;-77
2023/05/12 03:00:22;;;;;;;1.23;1.13;;;;;;;;;;1021736;29;21254;-77
2023/05/12 03:00:52;;;;;;;0.68;0.68;;;;;;;;;;1022067;29;20023;-76
2023/05/12 03:01:23;;;;;;;2.63;1.20;;;;;;;;;;1018371;29;20497;-76
2023/05/12 03:01:54;;;;;;;0.70;0.35;;;;;;;;;;1018980;29;20514;-76
2023/05/12 03:02:24;;;;;;;3.42;2.38;;;;;;;;;;1014868;29;20462;-76
2023/05/12 03:02:55;;;;;;;0.70;0.65;;;;;;;;;;1014740;29;20114;-77
2023/05/12 03:03:26;;;;;;;1.58;1.48;;;;;;;;;;1018244;29;20031;-76
2023/05/12 03:03:57;;;;;;;0.95;0.95;;;;;;;;;;1018064;29;20132;-76
2023/05/12 03:04:27;;;;;;;5.57;0.75;;;;;;;;;;1019362;29;20043;-76
2023/05/12 03:04:58;;;;;;;0.20;0.20;;;;;;;;;;1014840;29;20571;-77
2023/05/12 03:05:28;;;;;;;2.92;1.95;;;;;;;;;;1013819;29;21529;-76
2023/05/12 03:06:06;;;;;;;0.75;0.63;;;;;;;;;;1020551;29;20058;-76
2023/05/12 03:06:39;;;;;;;0.22;0.15;;;;;;;;;;1021706;29;20055;-77
2023/05/12 03:07:16;;;;;;;3.85;2.05;;;;;;;;;;1022669;29;20217;-76